| time (UTC) | temp C | wind direction | speed KPH | gust KPH | rain 1hr cm | rain 24hr cm | rain mn cm | humidity % | barometer mb |
| 20260510214504 | 21 | 248 | 8.0 | 20.9 | 0.00 | 0.00 | 0.00 | 34 | 1015.3 |
| 20260510213004 | 21 | 284 | 3.2 | 12.9 | 0.00 | 0.00 | 0.00 | 36 | 1015.2 |
| 20260510211503 | 21 | 245 | 8.0 | 17.7 | 0.00 | 0.00 | 0.00 | 35 | 1015.1 |
| 20260510210003 | 22 | 266 | 6.4 | 16.1 | 0.00 | 0.00 | 0.00 | 33 | 1015.3 |
| 20260510204504 | 21 | 259 | 4.8 | 17.7 | 0.00 | 0.00 | 0.00 | 33 | 1015.6 |
| 20260510203002 | 21 | 234 | 4.8 | 16.1 | 0.00 | 0.00 | 0.00 | 34 | 1015.7 |
| 20260510201610 | 21 | 210 | 4.8 | 14.5 | 0.00 | 0.00 | 0.00 | 29 | 1015.8 |
| 20260510200100 | 21 | 221 | 6.4 | 19.3 | 0.00 | 0.00 | 0.00 | 33 | 1015.8 |
| 20260510194605 | 22 | 200 | 6.4 | 14.5 | 0.00 | 0.00 | 0.00 | 30 | 1015.8 |
| 20260510193102 | 21 | 259 | 1.6 | 16.1 | 0.00 | 0.00 | 0.00 | 31 | 1015.9 |
| 20260510191601 | 21 | 48 | 3.2 | 14.5 | 0.00 | 0.00 | 0.00 | 31 | 1016.2 |
| 20260510190100 | 21 | 267 | 6.4 | 19.3 | 0.00 | 0.00 | 0.00 | 31 | 1016.2 |
| 20260510184603 | 21 | 242 | 9.7 | 17.7 | 0.00 | 0.00 | 0.00 | 32 | 1016.0 |
| 20260510183054 | 20 | 232 | 8.0 | 22.5 | 0.00 | 0.00 | 0.00 | 31 | 1016.2 |
| 20260510181606 | 21 | 42 | 4.8 | 19.3 | 0.00 | 0.00 | 0.00 | 28 | 1016.2 |
| 20260510180103 | 20 | 28 | 0.0 | 17.7 | 0.00 | 0.00 | 0.00 | 27 | 1016.2 |
| 20260510174549 | 20 | 265 | 4.8 | 16.1 | 0.00 | 0.00 | 0.00 | 33 | 1016.5 |
| 20260510173050 | 20 | 128 | 4.8 | 16.1 | 0.00 | 0.00 | 0.00 | 34 | 1016.6 |
| 20260510171550 | 20 | 327 | 9.7 | 17.7 | 0.00 | 0.00 | 0.00 | 28 | 1016.7 |
| 20260510170045 | 20 | 328 | 6.4 | 19.3 | 0.00 | 0.00 | 0.00 | 30 | 1016.7 |
| 20260510164545 | 20 | 246 | 4.8 | 11.3 | 0.00 | 0.00 | 0.00 | 28 | 1016.7 |
| 20260510163040 | 19 | 240 | 6.4 | 22.5 | 0.00 | 0.00 | 0.00 | 32 | 1016.7 |
| 20260510161541 | 19 | 235 | 6.4 | 16.1 | 0.00 | 0.00 | 0.00 | 37 | 1016.7 |
| 20260510160039 | 18 | 272 | 3.2 | 12.9 | 0.00 | 0.00 | 0.00 | 43 | 1016.7 |
| 20260510154536 | 18 | 244 | 6.4 | 19.3 | 0.00 | 0.00 | 0.00 | 46 | 1016.8 |
| 20260510153032 | 18 | 243 | 3.2 | 11.3 | 0.00 | 0.00 | 0.00 | 41 | 1016.9 |
| 20260510151536 | 17 | 246 | 8.0 | 16.1 | 0.00 | 0.00 | 0.00 | 42 | 1017.0 |
| 20260510150024 | 17 | 249 | 3.2 | 14.5 | 0.00 | 0.00 | 0.00 | 47 | 1017.0 |
| 20260510144521 | 17 | 63 | 6.4 | 16.1 | 0.00 | 0.00 | 0.00 | 46 | 1016.9 |
| 20260510143016 | 17 | 67 | 6.4 | 16.1 | 0.00 | 0.00 | 0.00 | 47 | 1016.9 |
| 20260510141513 | 16 | 74 | 12.9 | 22.5 | 0.00 | 0.00 | 0.00 | 47 | 1016.9 |
| 20260510140007 | 16 | 40 | 4.8 | 14.5 | 0.00 | 0.00 | 0.00 | 48 | 1017.0 |
| 20260510134505 | 16 | 325 | 4.8 | 17.7 | 0.00 | 0.00 | 0.00 | 50 | 1017.0 |
| 20260510133059 | 15 | 86 | 3.2 | 16.1 | 0.00 | 0.00 | 0.00 | 52 | 1017.0 |
| 20260510131554 | 15 | 42 | 6.4 | 16.1 | 0.00 | 0.00 | 0.00 | 52 | 1017.0 |
| 20260510130050 | 14 | 19 | 6.4 | 14.5 | 0.00 | 0.00 | 0.00 | 53 | 1016.6 |
| 20260510124547 | 14 | 40 | 6.4 | 16.1 | 0.00 | 0.00 | 0.00 | 53 | 1016.5 |
| 20260510123041 | 13 | 326 | 8.0 | 17.7 | 0.00 | 0.00 | 0.00 | 54 | 1016.2 |
| 20260510121536 | 13 | 281 | 8.0 | 17.7 | 0.00 | 0.00 | 0.00 | 57 | 1015.9 |
| 20260510120032 | 12 | 52 | 8.0 | 14.5 | 0.00 | 0.00 | 0.00 | 57 | 1015.8 |
| 20260510114529 | 12 | 65 | 8.0 | 14.5 | 0.00 | 0.00 | 0.00 | 61 | 1015.5 |
| 20260510113023 | 12 | 9 | 4.8 | 16.1 | 0.00 | 0.00 | 0.00 | 62 | 1015.2 |
| 20260510111519 | 11 | 12 | 4.8 | 16.1 | 0.00 | 0.00 | 0.00 | 65 | 1014.7 |
| 20260510110014 | 10 | 97 | 4.8 | 12.9 | 0.00 | 0.00 | 0.00 | 71 | 1014.6 |
| 20260510104511 | 10 | 24 | 4.8 | 11.3 | 0.00 | 0.00 | 0.00 | 77 | 1014.6 |
| 20260510103011 | 10 | 10 | 4.8 | 14.5 | 0.00 | 0.00 | 0.00 | 79 | 1014.4 |
| 20260510101507 | 11 | 53 | 6.4 | 12.9 | 0.00 | 0.00 | 0.00 | 80 | 1014.1 |
| 20260510100005 | 11 | 70 | 6.4 | 16.1 | 0.00 | 0.00 | 0.00 | 78 | 1014.0 |
| 20260510094511 | 11 | 52 | 8.0 | 19.3 | 0.00 | 0.00 | 0.00 | 72 | 1013.9 |
| 20260510093002 | 11 | 355 | 6.4 | 17.7 | 0.00 | 0.00 | 0.00 | 70 | 1013.7 |
| 20260510091600 | 11 | 38 | 8.0 | 16.1 | 0.00 | 0.00 | 0.00 | 75 | 1013.6 |
| 20260510090059 | 11 | 31 | 6.4 | 16.1 | 0.00 | 0.00 | 0.00 | 80 | 1013.6 |
| 20260510084557 | 11 | 71 | 6.4 | 16.1 | 0.00 | 0.00 | 0.00 | 80 | 1013.5 |
| 20260510083106 | 11 | 17 | 6.4 | 19.3 | 0.00 | 0.00 | 0.00 | 80 | 1013.3 |
| 20260510081556 | 11 | 70 | 8.0 | 20.9 | 0.00 | 0.00 | 0.00 | 81 | 1013.1 |
| 20260510080056 | 11 | 26 | 6.4 | 17.7 | 0.00 | 0.00 | 0.00 | 81 | 1013.1 |
| 20260510074550 | 11 | 33 | 4.8 | 12.9 | 0.00 | 0.00 | 0.00 | 81 | 1013.1 |
| 20260510073053 | 11 | 63 | 3.2 | 12.9 | 0.00 | 0.00 | 0.00 | 80 | 1013.2 |
| 20260510071546 | 12 | 248 | 1.6 | 8.0 | 0.00 | 0.00 | 0.00 | 78 | 1013.3 |
| 20260510070044 | 12 | 271 | 0.0 | 8.0 | 0.00 | 0.00 | 0.00 | 78 | 1013.4 |
| 20260510064542 | 12 | 11 | 0.0 | 8.0 | 0.00 | 0.00 | 0.00 | 77 | 1013.6 |
| 20260510063041 | 12 | 330 | 1.6 | 9.7 | 0.00 | 0.00 | 0.00 | 77 | 1013.7 |
| 20260510061540 | 12 | 241 | 1.6 | 8.0 | 0.00 | 0.00 | 0.00 | 76 | 1013.7 |
| 20260510060043 | 12 | 241 | 1.6 | 8.0 | 0.00 | 0.00 | 0.00 | 76 | 1013.7 |
| 20260510054541 | 12 | 14 | 3.2 | 9.7 | 0.00 | 0.00 | 0.00 | 75 | 1013.7 |
| 20260510053036 | 12 | 294 | 1.6 | 9.7 | 0.00 | 0.00 | 0.00 | 74 | 1013.7 |
| 20260510051536 | 12 | 240 | 0.0 | 6.4 | 0.00 | 0.00 | 0.00 | 72 | 1013.7 |
| 20260510050033 | 12 | 238 | 0.0 | 3.2 | 0.00 | 0.00 | 0.00 | 71 | 1013.8 |
| 20260510044531 | 12 | 237 | 1.6 | 6.4 | 0.00 | 0.00 | 0.00 | 70 | 1013.8 |
| 20260510043034 | 13 | 257 | 3.2 | 9.7 | 0.00 | 0.00 | 0.00 | 69 | 1013.8 |
| 20260510041528 | 13 | 236 | 4.8 | 8.0 | 0.00 | 0.00 | 0.00 | 68 | 1013.8 |
| 20260510040027 | 13 | 258 | 3.2 | 9.7 | 0.00 | 0.00 | 0.00 | 67 | 1013.9 |
| 20260510034526 | 13 | 257 | 3.2 | 9.7 | 0.00 | 0.00 | 0.00 | 67 | 1014.0 |
| 20260510033025 | 13 | 248 | 3.2 | 9.7 | 0.00 | 0.00 | 0.00 | 66 | 1013.9 |
| 20260510031525 | 13 | 261 | 3.2 | 9.7 | 0.00 | 0.00 | 0.00 | 65 | 1013.9 |
| 20260510030025 | 13 | 238 | 3.2 | 11.3 | 0.00 | 0.00 | 0.00 | 64 | 1013.9 |
| 20260510024524 | 13 | 247 | 1.6 | 9.7 | 0.00 | 0.00 | 0.00 | 63 | 1013.7 |
| 20260510023024 | 13 | 259 | 1.6 | 9.7 | 0.00 | 0.00 | 0.00 | 63 | 1013.5 |
| 20260510021526 | 13 | 251 | 4.8 | 12.9 | 0.00 | 0.00 | 0.00 | 63 | 1013.4 |
| 20260510020022 | 13 | 231 | 4.8 | 11.3 | 0.00 | 0.00 | 0.00 | 62 | 1013.3 |
| 20260510014524 | 13 | 246 | 1.6 | 8.0 | 0.00 | 0.00 | 0.00 | 61 | 1013.0 |
| 20260510013021 | 14 | 277 | 3.2 | 9.7 | 0.00 | 0.00 | 0.00 | 59 | 1012.8 |
| 20260510011520 | 14 | 198 | 4.8 | 12.9 | 0.00 | 0.00 | 0.00 | 59 | 1012.3 |
| 20260510010019 | 14 | 254 | 1.6 | 12.9 | 0.00 | 0.00 | 0.00 | 58 | 1012.3 |
| 20260510004518 | 14 | 232 | 3.2 | 9.7 | 0.00 | 0.00 | 0.00 | 57 | 1011.9 |
| 20260510003031 | 15 | 304 | 1.6 | 9.7 | 0.00 | 0.00 | 0.00 | 56 | 1011.8 |
| 20260510001522 | 15 | 206 | 1.6 | 11.3 | 0.00 | 0.00 | 0.00 | 55 | 1011.7 |
| 20260510000020 | 15 | 286 | 4.8 | 11.3 | 0.00 | 0.00 | 0.00 | 55 | 1011.7 |
| 20260509234525 | 16 | 322 | 6.4 | 12.9 | 0.00 | 0.00 | 0.00 | 53 | 1011.7 |
| 20260509233015 | 16 | 342 | 4.8 | 14.5 | 0.00 | 0.00 | 0.00 | 52 | 1011.8 |
| 20260509231515 | 16 | 319 | 6.4 | 19.3 | 0.00 | 0.00 | 0.00 | 51 | 1011.7 |
| 20260509230014 | 16 | 19 | 4.8 | 17.7 | 0.00 | 0.00 | 0.00 | 50 | 1011.5 |
| 20260509224513 | 16 | 235 | 6.4 | 17.7 | 0.00 | 0.00 | 0.00 | 51 | 1011.2 |
| 20260509223014 | 17 | 232 | 4.8 | 17.7 | 0.00 | 0.00 | 0.00 | 52 | 1011.2 |
| 20260509221513 | 17 | 279 | 6.4 | 20.9 | 0.00 | 0.00 | 0.00 | 52 | 1011.1 |
| 20260509220022 | 17 | 309 | 8.0 | 30.6 | 0.00 | 0.00 | 0.00 | 49 | 1011.1 |